Pagina principale
METAR-TAF:

METAR-TAF

Aeroporti :

Polokwane, Sudafrica

latitudine: 23-50-43S, longitudine: 29-27-31E, altezza: 1242 m

Osservazione

Il bollettino è stato emesso 44 minuti fa, alle 05:00 UTC
Vento 11 kt da est/nord-est
Temperature 23°C
Umidità 57%
Pressione 1016 hPa
Visibilità 10 km o più
nessuna nube inferiore a 1500 m e nessun cumulonembo

METAR: FAPP 180500Z 06011KT CAVOK 23/14 Q1016 NOSIG

Ora: 07:44 (05:44 UTC)

Previsione

Il bollettino è stato emesso 2 ore e 44 minuti fa, alle 03:00 UTC
Previsione valida dal 18 alle 04 UTC al 18 alle 15 UTC
Vento 12 kt da nord-est
Visibilità 10 km o più
Nuvoloso ad un'altezza di 1500 ft
Evoluzione graduale
dal 18 alle 08 UTC al 18 alle 10 UTC
Nubi sparse ad un'altezza di 3000 ft

TAF: FAPP 180300Z 1804/1815 04012KT 9999 BKN015 TX26/1813Z TN22/1804Z BECMG 1808/1810 SCT030

Osservazioni e previsioni meteorologiche di più di 4000 aeroporti (messaggi METAR e TAF).

Le stazioni disponibili sono rappresentate dai dischi gialli e rossi sulla carta.

Puntare il mouse per vedere il nome della stazione.

Clicca sopra per visualizzare le osservazioni e previsioni meteorologiche.

Per cambiare la mappa : fare clic sui pulsanti verdi con una croce nera per ingrandire, il pulsante verde con un trattino per diminuire, o sulla freccia verde per le mappe adiacenti.


METAR-TAF: